sensor_id;sensor_type;location;lat;lon;timestamp;pressure;altitude;pressure_sealevel;temperature;humidity
60832;BME280;46665;51.558;-0.448;2023-09-08T00:02:27;101118.47;;;19.55;100.00
60832;BME280;46665;51.558;-0.448;2023-09-08T00:05:11;101108.41;;;19.50;100.00
60832;BME280;46665;51.558;-0.448;2023-09-08T00:07:55;101126.88;;;19.49;100.00
60832;BME280;46665;51.558;-0.448;2023-09-08T00:10:39;101133.41;;;19.45;100.00
60832;BME280;46665;51.558;-0.448;2023-09-08T00:13:23;101124.97;;;19.41;100.00
60832;BME280;46665;51.558;-0.448;2023-09-08T00:16:07;101130.84;;;19.40;100.00
60832;BME280;46665;51.558;-0.448;2023-09-08T00:18:51;101121.28;;;19.37;100.00
60832;BME280;46665;51.558;-0.448;2023-09-08T00:21:36;101123.84;;;19.34;100.00
60832;BME280;46665;51.558;-0.448;2023-09-08T00:24:20;101123.06;;;19.33;100.00
60832;BME280;46665;51.558;-0.448;2023-09-08T00:27:04;101127.28;;;19.31;100.00
60832;BME280;46665;51.558;-0.448;2023-09-08T00:29:48;101138.19;;;19.27;100.00
60832;BME280;46665;51.558;-0.448;2023-09-08T00:32:32;101137.69;;;19.25;100.00
60832;BME280;46665;51.558;-0.448;2023-09-08T00:35:16;101128.13;;;19.22;100.00
60832;BME280;46665;51.558;-0.448;2023-09-08T00:38:00;101123.53;;;19.26;100.00
60832;BME280;46665;51.558;-0.448;2023-09-08T00:40:44;101119.13;;;19.34;100.00
60832;BME280;46665;51.558;-0.448;2023-09-08T00:43:28;101120.16;;;19.30;100.00
60832;BME280;46665;51.558;-0.448;2023-09-08T00:46:12;101122.44;;;19.27;100.00
60832;BME280;46665;51.558;-0.448;2023-09-08T00:48:56;101124.22;;;19.23;100.00
60832;BME280;46665;51.558;-0.448;2023-09-08T00:51:40;101111.22;;;19.24;100.00
60832;BME280;46665;51.558;-0.448;2023-09-08T00:54:24;101110.59;;;19.27;100.00
60832;BME280;46665;51.558;-0.448;2023-09-08T00:57:09;101117.41;;;19.21;100.00
60832;BME280;46665;51.558;-0.448;2023-09-08T00:59:54;101128.78;;;19.19;100.00
60832;BME280;46665;51.558;-0.448;2023-09-08T01:02:38;101124.06;;;19.11;100.00
60832;BME280;46665;51.558;-0.448;2023-09-08T01:05:22;101118.41;;;19.08;100.00
60832;BME280;46665;51.558;-0.448;2023-09-08T01:08:06;101115.47;;;19.13;100.00
60832;BME280;46665;51.558;-0.448;2023-09-08T01:10:51;101120.81;;;19.18;100.00
60832;BME280;46665;51.558;-0.448;2023-09-08T01:13:35;101122.13;;;19.20;100.00
60832;BME280;46665;51.558;-0.448;2023-09-08T01:16:20;101118.38;;;19.16;100.00
60832;BME280;46665;51.558;-0.448;2023-09-08T01:19:04;101123.56;;;19.18;100.00
60832;BME280;46665;51.558;-0.448;2023-09-08T01:22:24;101116.75;;;19.15;100.00
60832;BME280;46665;51.558;-0.448;2023-09-08T01:25:16;101116.91;;;19.19;100.00
60832;BME280;46665;51.558;-0.448;2023-09-08T01:28:01;101119.84;;;19.14;100.00
60832;BME280;46665;51.558;-0.448;2023-09-08T01:30:48;101119.38;;;19.12;100.00
60832;BME280;46665;51.558;-0.448;2023-09-08T01:33:33;101117.59;;;19.07;100.00
60832;BME280;46665;51.558;-0.448;2023-09-08T01:36:17;101114.34;;;19.05;100.00
60832;BME280;46665;51.558;-0.448;2023-09-08T01:39:02;101115.00;;;19.02;100.00
60832;BME280;46665;51.558;-0.448;2023-09-08T01:41:46;101111.28;;;18.98;100.00
60832;BME280;46665;51.558;-0.448;2023-09-08T01:44:30;101101.72;;;18.95;100.00
60832;BME280;46665;51.558;-0.448;2023-09-08T01:47:14;101105.44;;;18.91;100.00
60832;BME280;46665;51.558;-0.448;2023-09-08T01:49:58;101109.50;;;18.84;100.00
60832;BME280;46665;51.558;-0.448;2023-09-08T01:52:42;101110.16;;;18.81;100.00
60832;BME280;46665;51.558;-0.448;2023-09-08T01:55:26;101100.59;;;18.79;100.00
60832;BME280;46665;51.558;-0.448;2023-09-08T01:58:10;101103.50;;;18.74;100.00
60832;BME280;46665;51.558;-0.448;2023-09-08T02:00:54;101115.97;;;18.71;100.00
60832;BME280;46665;51.558;-0.448;2023-09-08T02:03:38;101103.31;;;18.70;100.00
60832;BME280;46665;51.558;-0.448;2023-09-08T02:06:22;101105.59;;;18.68;100.00
60832;BME280;46665;51.558;-0.448;2023-09-08T02:09:07;101102.38;;;18.66;100.00
60832;BME280;46665;51.558;-0.448;2023-09-08T02:11:53;101100.56;;;18.70;100.00
60832;BME280;46665;51.558;-0.448;2023-09-08T02:14:37;101090.69;;;18.69;100.00
60832;BME280;46665;51.558;-0.448;2023-09-08T02:17:21;101094.09;;;18.66;100.00
60832;BME280;46665;51.558;-0.448;2023-09-08T02:20:05;101094.56;;;18.59;100.00
60832;BME280;46665;51.558;-0.448;2023-09-08T02:22:53;101103.34;;;18.61;100.00
60832;BME280;46665;51.558;-0.448;2023-09-08T02:25:38;101099.78;;;18.61;100.00
60832;BME280;46665;51.558;-0.448;2023-09-08T02:28:21;101109.00;;;18.56;100.00
60832;BME280;46665;51.558;-0.448;2023-09-08T02:31:05;101107.72;;;18.54;100.00
60832;BME280;46665;51.558;-0.448;2023-09-08T02:33:49;101098.59;;;18.53;100.00
60832;BME280;46665;51.558;-0.448;2023-09-08T02:36:33;101098.47;;;18.50;100.00
60832;BME280;46665;51.558;-0.448;2023-09-08T02:39:17;101109.31;;;18.46;100.00
60832;BME280;46665;51.558;-0.448;2023-09-08T02:42:01;101102.19;;;18.45;100.00
60832;BME280;46665;51.558;-0.448;2023-09-08T02:44:45;101096.19;;;18.43;100.00
60832;BME280;46665;51.558;-0.448;2023-09-08T02:47:29;101103.31;;;18.44;100.00
60832;BME280;46665;51.558;-0.448;2023-09-08T02:50:13;101102.66;;;18.47;100.00
60832;BME280;46665;51.558;-0.448;2023-09-08T02:52:57;101095.53;;;18.55;100.00
60832;BME280;46665;51.558;-0.448;2023-09-08T02:55:42;101094.09;;;18.57;100.00
60832;BME280;46665;51.558;-0.448;2023-09-08T02:58:26;101091.19;;;18.54;100.00
60832;BME280;46665;51.558;-0.448;2023-09-08T03:01:15;101086.94;;;18.48;100.00
60832;BME280;46665;51.558;-0.448;2023-09-08T03:03:59;101095.72;;;18.41;100.00
60832;BME280;46665;51.558;-0.448;2023-09-08T03:06:43;101096.69;;;18.36;100.00
60832;BME280;46665;51.558;-0.448;2023-09-08T03:09:27;101093.72;;;18.33;100.00
60832;BME280;46665;51.558;-0.448;2023-09-08T03:12:11;101098.44;;;18.32;100.00
60832;BME280;46665;51.558;-0.448;2023-09-08T03:14:55;101091.31;;;18.31;100.00
60832;BME280;46665;51.558;-0.448;2023-09-08T03:17:39;101088.56;;;18.31;100.00
60832;BME280;46665;51.558;-0.448;2023-09-08T03:20:25;101081.91;;;18.32;100.00
60832;BME280;46665;51.558;-0.448;2023-09-08T03:23:12;101081.25;;;18.27;100.00
60832;BME280;46665;51.558;-0.448;2023-09-08T03:25:56;101087.56;;;18.18;100.00
60832;BME280;46665;51.558;-0.448;2023-09-08T03:28:42;101084.19;;;18.13;100.00
60832;BME280;46665;51.558;-0.448;2023-09-08T03:31:26;101081.22;;;18.09;100.00
60832;BME280;46665;51.558;-0.448;2023-09-08T03:34:11;101080.94;;;18.11;100.00
60832;BME280;46665;51.558;-0.448;2023-09-08T03:36:55;101085.75;;;18.05;100.00
60832;BME280;46665;51.558;-0.448;2023-09-08T03:39:39;101072.31;;;18.04;100.00
60832;BME280;46665;51.558;-0.448;2023-09-08T03:42:23;101068.75;;;18.03;100.00
60832;BME280;46665;51.558;-0.448;2023-09-08T03:45:07;101057.91;;;17.98;100.00
60832;BME280;46665;51.558;-0.448;2023-09-08T03:47:51;101063.06;;;18.00;100.00
60832;BME280;46665;51.558;-0.448;2023-09-08T03:50:37;101059.34;;;17.95;100.00
60832;BME280;46665;51.558;-0.448;2023-09-08T03:53:21;101065.63;;;17.87;100.00
60832;BME280;46665;51.558;-0.448;2023-09-08T03:56:05;101065.47;;;17.84;100.00
60832;BME280;46665;51.558;-0.448;2023-09-08T03:58:49;101060.63;;;17.81;100.00
60832;BME280;46665;51.558;-0.448;2023-09-08T04:01:32;101068.53;;;17.82;100.00
60832;BME280;46665;51.558;-0.448;2023-09-08T04:04:16;101073.22;;;17.82;100.00
60832;BME280;46665;51.558;-0.448;2023-09-08T04:07:04;101072.44;;;17.81;100.00
60832;BME280;46665;51.558;-0.448;2023-09-08T04:09:47;101074.66;;;17.79;100.00
60832;BME280;46665;51.558;-0.448;2023-09-08T04:12:31;101079.34;;;17.79;100.00
60832;BME280;46665;51.558;-0.448;2023-09-08T04:15:15;101073.56;;;17.80;100.00
60832;BME280;46665;51.558;-0.448;2023-09-08T04:17:59;101078.44;;;17.83;100.00
60832;BME280;46665;51.558;-0.448;2023-09-08T04:20:43;101081.50;;;17.82;100.00
60832;BME280;46665;51.558;-0.448;2023-09-08T04:23:27;101076.78;;;17.82;100.00
60832;BME280;46665;51.558;-0.448;2023-09-08T04:26:11;101087.91;;;17.77;100.00
60832;BME280;46665;51.558;-0.448;2023-09-08T04:28:55;101090.19;;;17.75;100.00
60832;BME280;46665;51.558;-0.448;2023-09-08T04:31:39;101078.53;;;17.78;100.00
60832;BME280;46665;51.558;-0.448;2023-09-08T04:34:23;101086.31;;;17.76;100.00
60832;BME280;46665;51.558;-0.448;2023-09-08T04:37:08;101084.19;;;17.73;100.00
60832;BME280;46665;51.558;-0.448;2023-09-08T04:39:52;101096.16;;;17.68;100.00
60832;BME280;46665;51.558;-0.448;2023-09-08T04:42:36;101097.59;;;17.66;100.00
60832;BME280;46665;51.558;-0.448;2023-09-08T04:45:20;101095.16;;;17.64;100.00
60832;BME280;46665;51.558;-0.448;2023-09-08T04:48:05;101092.41;;;17.64;100.00
60832;BME280;46665;51.558;-0.448;2023-09-08T04:50:49;101093.41;;;17.68;100.00
60832;BME280;46665;51.558;-0.448;2023-09-08T04:53:35;101086.59;;;17.66;100.00
60832;BME280;46665;51.558;-0.448;2023-09-08T04:56:20;101081.88;;;17.58;100.00
60832;BME280;46665;51.558;-0.448;2023-09-08T04:59:03;101103.38;;;17.55;100.00
60832;BME280;46665;51.558;-0.448;2023-09-08T05:01:48;101100.78;;;17.50;100.00
60832;BME280;46665;51.558;-0.448;2023-09-08T05:04:32;101105.28;;;17.46;100.00
60832;BME280;46665;51.558;-0.448;2023-09-08T05:07:16;101114.34;;;17.47;100.00
60832;BME280;46665;51.558;-0.448;2023-09-08T05:10:02;101116.78;;;17.48;100.00
60832;BME280;46665;51.558;-0.448;2023-09-08T05:12:46;101119.53;;;17.48;100.00
60832;BME280;46665;51.558;-0.448;2023-09-08T05:15:31;101113.41;;;17.51;100.00
60832;BME280;46665;51.558;-0.448;2023-09-08T05:18:15;101106.28;;;17.50;100.00
60832;BME280;46665;51.558;-0.448;2023-09-08T05:20:59;101104.19;;;17.56;100.00
60832;BME280;46665;51.558;-0.448;2023-09-08T05:23:43;101111.66;;;17.55;100.00
60832;BME280;46665;51.558;-0.448;2023-09-08T05:26:27;101110.63;;;17.51;100.00
60832;BME280;46665;51.558;-0.448;2023-09-08T05:29:11;101115.03;;;17.52;100.00
60832;BME280;46665;51.558;-0.448;2023-09-08T05:31:55;101104.03;;;17.52;100.00
60832;BME280;46665;51.558;-0.448;2023-09-08T05:34:39;101103.56;;;17.59;100.00
60832;BME280;46665;51.558;-0.448;2023-09-08T05:37:24;101105.66;;;17.62;100.00
60832;BME280;46665;51.558;-0.448;2023-09-08T05:40:08;101106.00;;;17.61;100.00
60832;BME280;46665;51.558;-0.448;2023-09-08T05:42:52;101105.19;;;17.60;100.00
60832;BME280;46665;51.558;-0.448;2023-09-08T05:45:37;101102.75;;;17.59;100.00
60832;BME280;46665;51.558;-0.448;2023-09-08T05:48:21;101104.69;;;17.58;100.00
60832;BME280;46665;51.558;-0.448;2023-09-08T05:51:05;101110.50;;;17.57;100.00
60832;BME280;46665;51.558;-0.448;2023-09-08T05:53:50;101121.72;;;17.60;100.00
60832;BME280;46665;51.558;-0.448;2023-09-08T05:56:34;101125.91;;;17.58;100.00
60832;BME280;46665;51.558;-0.448;2023-09-08T05:59:18;101120.41;;;17.58;100.00
60832;BME280;46665;51.558;-0.448;2023-09-08T06:02:02;101125.44;;;17.64;100.00
60832;BME280;46665;51.558;-0.448;2023-09-08T06:04:46;101131.44;;;17.66;100.00
60832;BME280;46665;51.558;-0.448;2023-09-08T06:07:30;101134.38;;;17.70;100.00
60832;BME280;46665;51.558;-0.448;2023-09-08T06:10:14;101125.16;;;17.74;100.00
60832;BME280;46665;51.558;-0.448;2023-09-08T06:12:58;101125.22;;;17.83;100.00
60832;BME280;46665;51.558;-0.448;2023-09-08T06:15:42;101118.44;;;17.89;100.00
60832;BME280;46665;51.558;-0.448;2023-09-08T06:18:28;101118.28;;;17.94;100.00
60832;BME280;46665;51.558;-0.448;2023-09-08T06:21:12;101134.16;;;17.97;100.00
60832;BME280;46665;51.558;-0.448;2023-09-08T06:23:57;101139.06;;;18.01;100.00
60832;BME280;46665;51.558;-0.448;2023-09-08T06:26:41;101139.53;;;18.03;100.00
60832;BME280;46665;51.558;-0.448;2023-09-08T06:29:26;101134.00;;;18.03;100.00
60832;BME280;46665;51.558;-0.448;2023-09-08T06:32:10;101138.91;;;18.06;100.00
60832;BME280;46665;51.558;-0.448;2023-09-08T06:34:55;101145.38;;;18.10;100.00
60832;BME280;46665;51.558;-0.448;2023-09-08T06:37:39;101153.34;;;18.11;100.00
60832;BME280;46665;51.558;-0.448;2023-09-08T06:40:23;101146.38;;;18.14;100.00
60832;BME280;46665;51.558;-0.448;2023-09-08T06:43:07;101146.38;;;18.23;100.00
60832;BME280;46665;51.558;-0.448;2023-09-08T06:45:51;101155.00;;;18.30;100.00
60832;BME280;46665;51.558;-0.448;2023-09-08T06:48:35;101160.53;;;18.38;100.00
60832;BME280;46665;51.558;-0.448;2023-09-08T06:51:19;101161.50;;;18.42;100.00
60832;BME280;46665;51.558;-0.448;2023-09-08T06:54:03;101158.94;;;18.46;100.00
60832;BME280;46665;51.558;-0.448;2023-09-08T06:56:47;101160.69;;;18.51;100.00
60832;BME280;46665;51.558;-0.448;2023-09-08T06:59:31;101160.06;;;18.54;100.00
60832;BME280;46665;51.558;-0.448;2023-09-08T07:02:15;101158.28;;;18.58;100.00
60832;BME280;46665;51.558;-0.448;2023-09-08T07:04:59;101163.16;;;18.61;100.00
60832;BME280;46665;51.558;-0.448;2023-09-08T07:07:44;101168.03;;;18.64;100.00
60832;BME280;46665;51.558;-0.448;2023-09-08T07:10:31;101166.22;;;18.68;100.00
60832;BME280;46665;51.558;-0.448;2023-09-08T07:13:15;101155.88;;;18.74;100.00
60832;BME280;46665;51.558;-0.448;2023-09-08T07:15:59;101166.44;;;18.80;100.00
60832;BME280;46665;51.558;-0.448;2023-09-08T07:18:43;101172.59;;;18.86;100.00
60832;BME280;46665;51.558;-0.448;2023-09-08T07:21:27;101163.84;;;18.93;100.00
60832;BME280;46665;51.558;-0.448;2023-09-08T07:24:11;101169.34;;;19.01;100.00
60832;BME280;46665;51.558;-0.448;2023-09-08T07:26:56;101162.34;;;19.04;100.00
60832;BME280;46665;51.558;-0.448;2023-09-08T07:29:40;101160.25;;;19.10;100.00
60832;BME280;46665;51.558;-0.448;2023-09-08T07:32:24;101164.16;;;19.17;100.00
60832;BME280;46665;51.558;-0.448;2023-09-08T07:35:08;101163.19;;;19.22;100.00
60832;BME280;46665;51.558;-0.448;2023-09-08T07:37:57;101162.34;;;19.30;100.00
60832;BME280;46665;51.558;-0.448;2023-09-08T07:40:41;101162.81;;;19.41;100.00
60832;BME280;46665;51.558;-0.448;2023-09-08T07:43:26;101162.63;;;19.46;100.00
60832;BME280;46665;51.558;-0.448;2023-09-08T07:46:10;101166.00;;;19.52;100.00
60832;BME280;46665;51.558;-0.448;2023-09-08T07:48:54;101158.53;;;19.61;100.00
60832;BME280;46665;51.558;-0.448;2023-09-08T07:51:38;101174.91;;;19.75;100.00
60832;BME280;46665;51.558;-0.448;2023-09-08T07:54:22;101195.34;;;19.82;100.00
60832;BME280;46665;51.558;-0.448;2023-09-08T07:57:06;101194.53;;;19.90;100.00
60832;BME280;46665;51.558;-0.448;2023-09-08T07:59:50;101181.34;;;19.96;100.00
60832;BME280;46665;51.558;-0.448;2023-09-08T08:02:34;101168.31;;;20.05;100.00
60832;BME280;46665;51.558;-0.448;2023-09-08T08:05:18;101171.81;;;20.14;100.00
60832;BME280;46665;51.558;-0.448;2023-09-08T08:08:02;101179.22;;;20.23;100.00
60832;BME280;46665;51.558;-0.448;2023-09-08T08:10:45;101178.72;;;20.29;100.00
60832;BME280;46665;51.558;-0.448;2023-09-08T08:13:29;101180.13;;;20.35;100.00
60832;BME280;46665;51.558;-0.448;2023-09-08T08:16:13;101185.16;;;20.42;100.00
60832;BME280;46665;51.558;-0.448;2023-09-08T08:18:58;101187.72;;;20.47;100.00
60832;BME280;46665;51.558;-0.448;2023-09-08T08:21:42;101186.88;;;20.55;100.00
60832;BME280;46665;51.558;-0.448;2023-09-08T08:24:27;101184.19;;;20.68;100.00
60832;BME280;46665;51.558;-0.448;2023-09-08T08:27:11;101184.47;;;20.75;100.00
60832;BME280;46665;51.558;-0.448;2023-09-08T08:29:54;101192.03;;;20.87;100.00
60832;BME280;46665;51.558;-0.448;2023-09-08T08:32:41;101190.47;;;20.98;100.00
60832;BME280;46665;51.558;-0.448;2023-09-08T08:35:25;101208.59;;;21.08;100.00
60832;BME280;46665;51.558;-0.448;2023-09-08T08:38:09;101191.13;;;21.16;100.00
60832;BME280;46665;51.558;-0.448;2023-09-08T08:40:53;101195.09;;;21.27;100.00
60832;BME280;46665;51.558;-0.448;2023-09-08T08:43:37;101193.03;;;21.36;100.00
60832;BME280;46665;51.558;-0.448;2023-09-08T08:46:22;101196.56;;;21.46;100.00
60832;BME280;46665;51.558;-0.448;2023-09-08T08:49:06;101192.88;;;21.54;100.00
60832;BME280;46665;51.558;-0.448;2023-09-08T08:51:51;101191.53;;;21.60;100.00
60832;BME280;46665;51.558;-0.448;2023-09-08T08:54:38;101185.78;;;21.65;100.00
60832;BME280;46665;51.558;-0.448;2023-09-08T08:57:22;101198.56;;;21.70;100.00
60832;BME280;46665;51.558;-0.448;2023-09-08T09:00:08;101203.22;;;21.78;100.00
60832;BME280;46665;51.558;-0.448;2023-09-08T09:02:54;101204.94;;;21.82;100.00
60832;BME280;46665;51.558;-0.448;2023-09-08T09:05:39;101213.63;;;21.93;100.00
60832;BME280;46665;51.558;-0.448;2023-09-08T09:08:26;101195.63;;;21.99;100.00
60832;BME280;46665;51.558;-0.448;2023-09-08T09:11:11;101199.09;;;22.08;100.00
60832;BME280;46665;51.558;-0.448;2023-09-08T09:13:55;101187.53;;;22.19;100.00
60832;BME280;46665;51.558;-0.448;2023-09-08T09:16:41;101191.38;;;22.26;100.00
60832;BME280;46665;51.558;-0.448;2023-09-08T09:19:26;101192.28;;;22.31;100.00
60832;BME280;46665;51.558;-0.448;2023-09-08T09:22:20;101193.31;;;22.38;100.00
60832;BME280;46665;51.558;-0.448;2023-09-08T09:25:05;101199.09;;;22.45;100.00
60832;BME280;46665;51.558;-0.448;2023-09-08T09:27:54;101200.81;;;22.50;100.00
60832;BME280;46665;51.558;-0.448;2023-09-08T09:30:47;101197.00;;;22.55;100.00
60832;BME280;46665;51.558;-0.448;2023-09-08T09:33:32;101206.47;;;22.66;100.00
60832;BME280;46665;51.558;-0.448;2023-09-08T09:36:20;101201.25;;;22.77;100.00
60832;BME280;46665;51.558;-0.448;2023-09-08T09:39:04;101211.03;;;22.86;100.00
60832;BME280;46665;51.558;-0.448;2023-09-08T09:41:53;101203.38;;;22.96;100.00
60832;BME280;46665;51.558;-0.448;2023-09-08T09:44:38;101203.72;;;23.06;100.00
60832;BME280;46665;51.558;-0.448;2023-09-08T09:47:22;101209.47;;;23.13;100.00
60832;BME280;46665;51.558;-0.448;2023-09-08T09:50:07;101203.22;;;23.17;100.00
60832;BME280;46665;51.558;-0.448;2023-09-08T09:52:51;101202.28;;;23.25;100.00
60832;BME280;46665;51.558;-0.448;2023-09-08T09:55:37;101205.22;;;23.32;100.00
60832;BME280;46665;51.558;-0.448;2023-09-08T09:58:22;101207.06;;;23.40;100.00
60832;BME280;46665;51.558;-0.448;2023-09-08T10:01:08;101207.59;;;23.46;100.00
60832;BME280;46665;51.558;-0.448;2023-09-08T10:03:55;101216.13;;;23.53;100.00
60832;BME280;46665;51.558;-0.448;2023-09-08T10:06:40;101216.41;;;23.64;100.00
60832;BME280;46665;51.558;-0.448;2023-09-08T10:09:24;101215.81;;;23.70;100.00
60832;BME280;46665;51.558;-0.448;2023-09-08T10:12:09;101215.19;;;23.77;100.00
60832;BME280;46665;51.558;-0.448;2023-09-08T10:14:55;101217.91;;;23.89;100.00
60832;BME280;46665;51.558;-0.448;2023-09-08T10:17:41;101221.31;;;23.98;99.71
60832;BME280;46665;51.558;-0.448;2023-09-08T10:20:27;101224.63;;;24.04;99.74
60832;BME280;46665;51.558;-0.448;2023-09-08T10:23:17;101217.34;;;24.15;98.74
60832;BME280;46665;51.558;-0.448;2023-09-08T10:26:10;101216.78;;;24.26;97.71
60832;BME280;46665;51.558;-0.448;2023-09-08T10:28:54;101212.66;;;24.35;97.39
60832;BME280;46665;51.558;-0.448;2023-09-08T10:31:43;101214.38;;;24.40;96.05
60832;BME280;46665;51.558;-0.448;2023-09-08T10:34:27;101216.63;;;24.50;95.29
60832;BME280;46665;51.558;-0.448;2023-09-08T10:37:20;101229.97;;;24.60;97.24
60832;BME280;46665;51.558;-0.448;2023-09-08T10:40:21;101213.78;;;24.66;93.92
60832;BME280;46665;51.558;-0.448;2023-09-08T10:43:06;101215.59;;;24.74;93.51
60832;BME280;46665;51.558;-0.448;2023-09-08T10:45:50;101221.72;;;24.83;93.96
60832;BME280;46665;51.558;-0.448;2023-09-08T10:48:44;101217.22;;;24.95;93.87
60832;BME280;46665;51.558;-0.448;2023-09-08T10:51:29;101224.97;;;25.05;90.32
60832;BME280;46665;51.558;-0.448;2023-09-08T10:57:26;101216.28;;;25.26;90.31
60832;BME280;46665;51.558;-0.448;2023-09-08T11:00:17;101228.31;;;25.30;88.86
60832;BME280;46665;51.558;-0.448;2023-09-08T11:03:01;101220.75;;;25.30;89.88
60832;BME280;46665;51.558;-0.448;2023-09-08T11:05:47;101222.78;;;25.34;88.86
60832;BME280;46665;51.558;-0.448;2023-09-08T11:08:37;101216.91;;;25.39;88.96
60832;BME280;46665;51.558;-0.448;2023-09-08T11:11:22;101215.03;;;25.43;89.79
60832;BME280;46665;51.558;-0.448;2023-09-08T11:14:06;101218.25;;;25.45;88.00
60832;BME280;46665;51.558;-0.448;2023-09-08T11:16:50;101221.91;;;25.49;87.92
60832;BME280;46665;51.558;-0.448;2023-09-08T11:19:47;101219.25;;;25.56;88.74
60832;BME280;46665;51.558;-0.448;2023-09-08T11:22:34;101230.53;;;25.63;85.43
60832;BME280;46665;51.558;-0.448;2023-09-08T11:25:20;101226.34;;;25.73;85.55
60832;BME280;46665;51.558;-0.448;2023-09-08T11:28:05;101217.28;;;25.80;84.38
60832;BME280;46665;51.558;-0.448;2023-09-08T11:30:50;101224.63;;;25.88;84.51
60832;BME280;46665;51.558;-0.448;2023-09-08T11:33:35;101223.09;;;25.90;82.15
60832;BME280;46665;51.558;-0.448;2023-09-08T11:36:23;101223.63;;;26.00;81.62
60832;BME280;46665;51.558;-0.448;2023-09-08T11:39:09;101223.75;;;26.07;80.71
60832;BME280;46665;51.558;-0.448;2023-09-08T11:41:54;101216.19;;;26.07;79.29
60832;BME280;46665;51.558;-0.448;2023-09-08T11:44:39;101222.69;;;26.15;79.59
60832;BME280;46665;51.558;-0.448;2023-09-08T11:47:24;101210.47;;;26.23;78.24
60832;BME280;46665;51.558;-0.448;2023-09-08T11:50:12;101215.34;;;26.30;78.08
60832;BME280;46665;51.558;-0.448;2023-09-08T11:52:59;101209.50;;;26.38;77.10
60832;BME280;46665;51.558;-0.448;2023-09-08T11:55:43;101214.81;;;26.47;75.32
60832;BME280;46665;51.558;-0.448;2023-09-08T11:58:28;101216.84;;;26.50;76.32
60832;BME280;46665;51.558;-0.448;2023-09-08T12:01:13;101210.47;;;26.50;73.00
60832;BME280;46665;51.558;-0.448;2023-09-08T12:03:57;101217.84;;;26.62;74.13
60832;BME280;46665;51.558;-0.448;2023-09-08T12:06:42;101214.31;;;26.65;73.16
60832;BME280;46665;51.558;-0.448;2023-09-08T12:09:26;101217.97;;;26.69;71.91
60832;BME280;46665;51.558;-0.448;2023-09-08T12:12:13;101211.63;;;26.72;72.68
60832;BME280;46665;51.558;-0.448;2023-09-08T12:14:57;101226.41;;;26.76;70.22
60832;BME280;46665;51.558;-0.448;2023-09-08T12:17:48;101213.69;;;26.78;72.32
60832;BME280;46665;51.558;-0.448;2023-09-08T12:20:34;101224.81;;;26.75;68.00
60832;BME280;46665;51.558;-0.448;2023-09-08T12:23:20;101219.19;;;26.71;68.80
60832;BME280;46665;51.558;-0.448;2023-09-08T12:26:04;101215.16;;;26.69;68.58
60832;BME280;46665;51.558;-0.448;2023-09-08T12:28:48;101210.81;;;26.71;68.15
60832;BME280;46665;51.558;-0.448;2023-09-08T12:31:32;101210.84;;;26.75;68.21
60832;BME280;46665;51.558;-0.448;2023-09-08T12:34:16;101218.56;;;26.85;67.78
60832;BME280;46665;51.558;-0.448;2023-09-08T12:37:01;101211.44;;;26.91;67.67
60832;BME280;46665;51.558;-0.448;2023-09-08T12:39:45;101209.88;;;26.94;68.41
60832;BME280;46665;51.558;-0.448;2023-09-08T12:42:29;101198.81;;;27.01;68.86
60832;BME280;46665;51.558;-0.448;2023-09-08T12:45:12;101204.94;;;27.14;69.99
60832;BME280;46665;51.558;-0.448;2023-09-08T12:48:01;101201.91;;;27.22;68.57
60832;BME280;46665;51.558;-0.448;2023-09-08T12:50:46;101196.78;;;27.28;68.88
60832;BME280;46665;51.558;-0.448;2023-09-08T12:53:34;101202.38;;;27.32;68.73
60832;BME280;46665;51.558;-0.448;2023-09-08T12:56:19;101196.50;;;27.40;68.75
60832;BME280;46665;51.558;-0.448;2023-09-08T12:59:03;101196.16;;;27.45;68.00
60832;BME280;46665;51.558;-0.448;2023-09-08T13:01:47;101192.59;;;27.49;67.77
60832;BME280;46665;51.558;-0.448;2023-09-08T13:04:31;101195.13;;;27.61;69.41
60832;BME280;46665;51.558;-0.448;2023-09-08T13:07:16;101190.38;;;27.69;68.68
60832;BME280;46665;51.558;-0.448;2023-09-08T13:10:00;101178.06;;;27.73;69.22
60832;BME280;46665;51.558;-0.448;2023-09-08T13:12:44;101188.47;;;27.76;67.98
60832;BME280;46665;51.558;-0.448;2023-09-08T13:15:29;101180.06;;;27.73;69.05
60832;BME280;46665;51.558;-0.448;2023-09-08T13:18:13;101179.97;;;27.65;68.82
60832;BME280;46665;51.558;-0.448;2023-09-08T13:20:57;101178.41;;;27.68;67.72
60832;BME280;46665;51.558;-0.448;2023-09-08T13:23:41;101180.84;;;27.73;67.87
60832;BME280;46665;51.558;-0.448;2023-09-08T13:26:25;101174.66;;;27.91;68.22
60832;BME280;46665;51.558;-0.448;2023-09-08T13:29:08;101165.91;;;28.03;66.47
60832;BME280;46665;51.558;-0.448;2023-09-08T13:31:53;101173.56;;;28.06;66.16
60832;BME280;46665;51.558;-0.448;2023-09-08T13:34:37;101167.19;;;28.09;65.82
60832;BME280;46665;51.558;-0.448;2023-09-08T13:37:22;101163.47;;;27.94;65.76
60832;BME280;46665;51.558;-0.448;2023-09-08T13:40:07;101164.63;;;27.90;65.17
60832;BME280;46665;51.558;-0.448;2023-09-08T13:42:51;101156.66;;;27.92;65.14
60832;BME280;46665;51.558;-0.448;2023-09-08T13:45:37;101156.25;;;27.90;65.36
60832;BME280;46665;51.558;-0.448;2023-09-08T13:48:21;101156.69;;;27.95;64.97
60832;BME280;46665;51.558;-0.448;2023-09-08T13:51:06;101152.66;;;27.89;65.65
60832;BME280;46665;51.558;-0.448;2023-09-08T13:53:50;101153.44;;;27.90;65.05
60832;BME280;46665;51.558;-0.448;2023-09-08T13:56:34;101145.13;;;28.00;66.10
60832;BME280;46665;51.558;-0.448;2023-09-08T13:59:17;101142.47;;;28.18;65.53
60832;BME280;46665;51.558;-0.448;2023-09-08T14:02:02;101147.34;;;28.32;62.07
60832;BME280;46665;51.558;-0.448;2023-09-08T14:04:47;101152.19;;;28.42;60.86
60832;BME280;46665;51.558;-0.448;2023-09-08T14:07:31;101149.44;;;28.46;59.66